Time;durP1;ratioP1;P1;durP2;ratioP2;P2;SDS_P1;SDS_P2;PMS_P1;PMS_P2;Temp;Humidity;BMP_temperature;BMP_pressure;BME280_temperature;BME280_humidity;BME280_pressure;Samples;Min_cycle;Max_cycle;Signal;HPM_P1;HPM_P2
2023/07/25 00:01:02;;;;;;;5.35;2.90;;;;;;;;;;5012700;28;20025;-77
2023/07/25 00:03:28;;;;;;;4.00;2.35;;;;;;;;;;5011150;28;20113;-77
2023/07/25 00:05:53;;;;;;;3.60;2.15;;;;;;;;;;5012121;28;20097;-76
2023/07/25 00:08:19;;;;;;;4.22;1.92;;;;;;;;;;5011341;28;20394;-77
2023/07/25 00:10:44;;;;;;;4.93;2.10;;;;;;;;;;5012468;28;20025;-77
2023/07/25 00:13:10;;;;;;;5.53;2.80;;;;;;;;;;5012567;28;20049;-77
2023/07/25 00:15:36;;;;;;;4.30;2.75;;;;;;;;;;5012548;28;20029;-77
2023/07/25 00:18:02;;;;;;;3.03;2.00;;;;;;;;;;5011820;28;20057;-77
2023/07/25 00:20:28;;;;;;;3.80;2.38;;;;;;;;;;5013378;28;20065;-77
2023/07/25 00:22:53;;;;;;;4.47;2.67;;;;;;;;;;5011406;28;20041;-77
2023/07/25 00:25:19;;;;;;;4.55;2.40;;;;;;;;;;5012465;28;20525;-77
2023/07/25 00:27:44;;;;;;;3.53;2.25;;;;;;;;;;5011678;28;20030;-77
2023/07/25 00:30:10;;;;;;;4.70;2.80;;;;;;;;;;5012301;28;20030;-77
2023/07/25 00:32:35;;;;;;;4.93;2.53;;;;;;;;;;5009928;28;20053;-77
2023/07/25 00:35:02;;;;;;;4.63;2.90;;;;;;;;;;5009993;28;20109;-77
2023/07/25 00:37:30;;;;;;;4.68;2.90;;;;;;;;;;5010631;28;20030;-77
2023/07/25 00:39:56;;;;;;;4.18;2.55;;;;;;;;;;5011635;28;20032;-77
2023/07/25 00:42:22;;;;;;;5.25;2.70;;;;;;;;;;5011591;28;20184;-77
2023/07/25 00:44:48;;;;;;;5.10;2.70;;;;;;;;;;5011650;28;20522;-77
2023/07/25 00:47:14;;;;;;;7.80;3.05;;;;;;;;;;5011100;28;20459;-77
2023/07/25 00:49:42;;;;;;;3.95;2.58;;;;;;;;;;5011402;28;20365;-77
2023/07/25 00:52:10;;;;;;;7.75;2.95;;;;;;;;;;5011684;28;20099;-76
2023/07/25 00:54:39;;;;;;;4.97;2.63;;;;;;;;;;4995385;28;20026;-78
2023/07/25 00:57:05;;;;;;;8.48;3.17;;;;;;;;;;5013209;28;20039;-78
2023/07/25 00:59:31;;;;;;;3.90;2.63;;;;;;;;;;5010721;28;20064;-77
2023/07/25 01:01:57;;;;;;;10.95;3.10;;;;;;;;;;5011271;28;20073;-77
2023/07/25 01:04:24;;;;;;;3.97;2.55;;;;;;;;;;5009960;28;20335;-77
2023/07/25 01:06:50;;;;;;;4.72;2.30;;;;;;;;;;5010917;28;20029;-78
2023/07/25 01:09:34;;;;;;;5.50;2.53;;;;;;;;;;5010533;28;20032;-77
2023/07/25 01:11:59;;;;;;;8.57;3.05;;;;;;;;;;5010703;28;20034;-77
2023/07/25 01:14:25;;;;;;;5.20;2.70;;;;;;;;;;5010165;28;20029;-77
2023/07/25 01:16:50;;;;;;;4.80;2.92;;;;;;;;;;5011187;28;20029;-77
2023/07/25 01:19:18;;;;;;;3.75;2.25;;;;;;;;;;5010195;28;20026;-77
2023/07/25 01:21:43;;;;;;;5.22;3.10;;;;;;;;;;5009404;28;20030;-77
2023/07/25 01:24:09;;;;;;;6.22;2.88;;;;;;;;;;5010987;28;20029;-77
2023/07/25 01:26:34;;;;;;;5.53;2.72;;;;;;;;;;5011023;28;20509;-77
2023/07/25 01:29:00;;;;;;;4.40;2.38;;;;;;;;;;5010811;28;20032;-77
2023/07/25 01:31:25;;;;;;;6.45;3.00;;;;;;;;;;5010933;28;20049;-76
2023/07/25 01:33:51;;;;;;;4.13;2.72;;;;;;;;;;5009356;28;20131;-77
2023/07/25 01:36:16;;;;;;;4.82;3.05;;;;;;;;;;5010929;28;20030;-77
2023/07/25 01:38:43;;;;;;;4.45;2.75;;;;;;;;;;5010958;28;20034;-77
2023/07/25 01:41:08;;;;;;;3.72;2.35;;;;;;;;;;5011172;28;20026;-78
2023/07/25 01:43:34;;;;;;;4.43;2.58;;;;;;;;;;5011030;28;20040;-78
2023/07/25 01:45:59;;;;;;;6.07;3.30;;;;;;;;;;5010299;28;20434;-79
2023/07/25 01:48:25;;;;;;;4.50;2.97;;;;;;;;;;5009915;28;20125;-79
2023/07/25 01:50:50;;;;;;;5.03;2.78;;;;;;;;;;5011106;28;20331;-78
2023/07/25 01:53:16;;;;;;;5.60;3.17;;;;;;;;;;5015857;28;20022;-79
2023/07/25 01:55:43;;;;;;;4.25;2.53;;;;;;;;;;5016911;28;20136;-78
2023/07/25 01:58:08;;;;;;;6.00;3.17;;;;;;;;;;5018594;28;20049;-79
2023/07/25 02:00:34;;;;;;;4.22;2.97;;;;;;;;;;5022016;28;20025;-78
2023/07/25 02:02:59;;;;;;;4.70;2.92;;;;;;;;;;5027359;28;20314;-77
2023/07/25 02:05:25;;;;;;;4.30;2.88;;;;;;;;;;5026719;28;20026;-79
2023/07/25 02:07:51;;;;;;;5.25;2.78;;;;;;;;;;5014341;28;20467;-78
2023/07/25 02:10:17;;;;;;;5.53;2.97;;;;;;;;;;5009680;28;20025;-79
2023/07/25 02:12:44;;;;;;;5.50;2.60;;;;;;;;;;5010553;28;20368;-78
2023/07/25 02:15:09;;;;;;;3.67;2.47;;;;;;;;;;5010344;28;20393;-79
2023/07/25 02:17:35;;;;;;;4.72;2.55;;;;;;;;;;5010763;28;20029;-79
2023/07/25 02:20:00;;;;;;;8.43;2.47;;;;;;;;;;5010814;28;20459;-77
2023/07/25 02:22:26;;;;;;;5.68;3.45;;;;;;;;;;5011880;28;20129;-79
2023/07/25 02:24:52;;;;;;;6.15;2.60;;;;;;;;;;5011077;28;20030;-79
2023/07/25 02:27:17;;;;;;;6.90;2.80;;;;;;;;;;5013401;28;20034;-79
2023/07/25 02:29:43;;;;;;;4.95;2.67;;;;;;;;;;5018633;28;20509;-78
2023/07/25 02:32:08;;;;;;;6.90;2.88;;;;;;;;;;5019694;28;20100;-78
2023/07/25 02:34:34;;;;;;;4.72;2.30;;;;;;;;;;5020662;28;20687;-80
2023/07/25 02:36:59;;;;;;;4.28;2.30;;;;;;;;;;5012627;28;20033;-79
2023/07/25 02:39:25;;;;;;;4.40;2.67;;;;;;;;;;5009609;28;20070;-80
2023/07/25 02:41:50;;;;;;;3.67;2.75;;;;;;;;;;5009539;28;20030;-78
2023/07/25 02:44:16;;;;;;;4.47;2.70;;;;;;;;;;5009612;28;20624;-77
2023/07/25 02:46:41;;;;;;;4.45;2.53;;;;;;;;;;5010623;28;20021;-78
2023/07/25 02:49:07;;;;;;;3.80;2.70;;;;;;;;;;5008714;28;20068;-78
2023/07/25 02:51:32;;;;;;;3.65;2.25;;;;;;;;;;5010517;28;20382;-79
2023/07/25 02:53:58;;;;;;;3.67;2.67;;;;;;;;;;5010110;28;20034;-78
2023/07/25 02:56:25;;;;;;;4.95;2.65;;;;;;;;;;5011522;28;20087;-78
2023/07/25 02:58:51;;;;;;;4.22;2.95;;;;;;;;;;5012479;28;20022;-80
2023/07/25 03:01:16;;;;;;;6.35;2.80;;;;;;;;;;5014361;28;20524;-78
2023/07/25 03:03:42;;;;;;;4.55;2.97;;;;;;;;;;5014005;28;20102;-78
2023/07/25 03:06:07;;;;;;;4.30;2.70;;;;;;;;;;5012141;28;20033;-78
2023/07/25 03:08:33;;;;;;;4.15;2.45;;;;;;;;;;5012343;28;20037;-79
2023/07/25 03:10:58;;;;;;;18.38;6.25;;;;;;;;;;5012062;28;20072;-79
2023/07/25 03:13:23;;;;;;;5.70;2.92;;;;;;;;;;5011956;28;20029;-79
2023/07/25 03:15:49;;;;;;;5.47;2.55;;;;;;;;;;5013292;28;20083;-80
2023/07/25 03:18:14;;;;;;;6.28;2.47;;;;;;;;;;5013248;28;20037;-77
2023/07/25 03:20:40;;;;;;;3.55;2.30;;;;;;;;;;5012111;28;20091;-78
2023/07/25 03:23:05;;;;;;;6.10;3.00;;;;;;;;;;5013000;28;20025;-76
2023/07/25 03:25:31;;;;;;;11.68;3.33;;;;;;;;;;5011526;28;20074;-75
2023/07/25 03:27:57;;;;;;;9.55;2.95;;;;;;;;;;5011595;28;20049;-76
2023/07/25 03:30:23;;;;;;;4.88;2.35;;;;;;;;;;5011733;28;20046;-74
2023/07/25 03:32:49;;;;;;;6.20;2.67;;;;;;;;;;5011528;28;20025;-76
2023/07/25 03:35:15;;;;;;;5.75;2.72;;;;;;;;;;5011421;28;20693;-75
2023/07/25 03:37:40;;;;;;;5.30;2.83;;;;;;;;;;5012927;28;20034;-75
2023/07/25 03:40:06;;;;;;;4.85;2.80;;;;;;;;;;5011086;28;20129;-75
2023/07/25 03:42:32;;;;;;;4.70;2.47;;;;;;;;;;5013014;28;20482;-75
2023/07/25 03:44:57;;;;;;;9.43;4.53;;;;;;;;;;5013444;28;20022;-75
2023/07/25 03:47:23;;;;;;;5.50;2.38;;;;;;;;;;5014296;28;20084;-75
2023/07/25 03:49:49;;;;;;;3.78;2.30;;;;;;;;;;5013435;28;20034;-76
2023/07/25 03:52:14;;;;;;;4.47;2.42;;;;;;;;;;5013430;28;20382;-76
2023/07/25 03:54:40;;;;;;;4.25;2.78;;;;;;;;;;5012354;28;20057;-76
2023/07/25 03:57:05;;;;;;;5.28;2.60;;;;;;;;;;5011123;28;20418;-76
2023/07/25 03:59:31;;;;;;;4.53;2.88;;;;;;;;;;5012183;28;20042;-75
2023/07/25 04:01:56;;;;;;;5.32;2.90;;;;;;;;;;5012224;28;20025;-76
2023/07/25 04:04:22;;;;;;;4.32;2.95;;;;;;;;;;5012382;28;20032;-75
2023/07/25 04:06:47;;;;;;;4.43;2.55;;;;;;;;;;5012515;28;20140;-75
2023/07/25 04:09:13;;;;;;;3.92;2.33;;;;;;;;;;5012294;28;20025;-75
2023/07/25 04:11:38;;;;;;;6.28;2.75;;;;;;;;;;5012562;28;20025;-74
2023/07/25 04:14:04;;;;;;;7.55;3.22;;;;;;;;;;5012112;28;20018;-75
2023/07/25 04:16:29;;;;;;;6.50;2.97;;;;;;;;;;5012140;28;20029;-76
2023/07/25 04:18:55;;;;;;;5.68;2.08;;;;;;;;;;5011799;28;20021;-76
2023/07/25 04:21:20;;;;;;;13.13;4.15;;;;;;;;;;5010651;28;20026;-75
2023/07/25 04:23:46;;;;;;;2.75;2.00;;;;;;;;;;5011895;28;20014;-76
2023/07/25 04:26:11;;;;;;;4.03;2.20;;;;;;;;;;5010984;28;20046;-76
2023/07/25 04:28:37;;;;;;;5.18;2.92;;;;;;;;;;5012408;28;20489;-75
2023/07/25 04:31:02;;;;;;;4.15;2.75;;;;;;;;;;5010837;28;20126;-76
2023/07/25 04:33:28;;;;;;;5.15;2.65;;;;;;;;;;5010655;28;20054;-76
2023/07/25 04:35:53;;;;;;;4.20;2.83;;;;;;;;;;5010415;28;20025;-74
2023/07/25 04:38:19;;;;;;;2.97;2.10;;;;;;;;;;5010349;28;20099;-75
2023/07/25 04:40:44;;;;;;;5.45;2.05;;;;;;;;;;5010536;28;20133;-75
2023/07/25 04:43:10;;;;;;;4.38;2.33;;;;;;;;;;5010218;28;20034;-75
2023/07/25 04:45:37;;;;;;;5.47;2.30;;;;;;;;;;5010684;28;20036;-75
2023/07/25 04:48:03;;;;;;;3.38;1.77;;;;;;;;;;5012420;28;20350;-76
2023/07/25 04:50:28;;;;;;;10.57;2.20;;;;;;;;;;5014096;28;20022;-76
2023/07/25 04:52:54;;;;;;;4.53;2.40;;;;;;;;;;5012287;28;20038;-76
2023/07/25 04:55:19;;;;;;;4.30;1.63;;;;;;;;;;5013464;28;20040;-75
2023/07/25 04:57:45;;;;;;;2.88;1.90;;;;;;;;;;5013873;28;20025;-75
2023/07/25 05:00:11;;;;;;;2.80;1.85;;;;;;;;;;5013440;28;20100;-75
2023/07/25 05:02:36;;;;;;;3.38;1.80;;;;;;;;;;5015076;28;20030;-76
2023/07/25 05:05:02;;;;;;;3.53;2.20;;;;;;;;;;5017810;28;20029;-74
2023/07/25 05:07:27;;;;;;;2.25;1.70;;;;;;;;;;5019504;28;20091;-74
2023/07/25 05:09:54;;;;;;;3.67;2.15;;;;;;;;;;5023293;28;20029;-76
2023/07/25 05:12:20;;;;;;;11.27;4.50;;;;;;;;;;5018014;28;20034;-75
2023/07/25 05:14:45;;;;;;;3.30;2.13;;;;;;;;;;5010412;28;20124;-75
2023/07/25 05:17:10;;;;;;;4.35;2.80;;;;;;;;;;5013955;28;20022;-76
2023/07/25 05:19:36;;;;;;;11.85;3.90;;;;;;;;;;5022701;28;20038;-74
2023/07/25 05:22:02;;;;;;;9.82;5.40;;;;;;;;;;5018158;28;20075;-75
2023/07/25 05:24:28;;;;;;;5.25;2.83;;;;;;;;;;5016596;28;20497;-75
2023/07/25 05:26:53;;;;;;;3.75;2.50;;;;;;;;;;5018346;28;20489;-76
2023/07/25 05:29:19;;;;;;;3.38;2.20;;;;;;;;;;5026502;28;20378;-76
2023/07/25 05:31:44;;;;;;;5.57;2.75;;;;;;;;;;5024059;28;20136;-75
2023/07/25 05:34:10;;;;;;;3.60;1.95;;;;;;;;;;5023015;28;20042;-74
2023/07/25 05:36:36;;;;;;;3.63;1.75;;;;;;;;;;5020847;28;20053;-75
2023/07/25 05:39:01;;;;;;;1.83;1.55;;;;;;;;;;5011423;28;20064;-74
2023/07/25 05:41:27;;;;;;;2.75;1.77;;;;;;;;;;5022896;28;20096;-75
2023/07/25 05:43:52;;;;;;;2.80;1.73;;;;;;;;;;5020760;28;20052;-76
2023/07/25 05:46:18;;;;;;;3.05;1.85;;;;;;;;;;5017683;28;20037;-75
2023/07/25 05:48:44;;;;;;;2.78;2.00;;;;;;;;;;5021877;28;20030;-75
2023/07/25 05:51:09;;;;;;;3.78;1.90;;;;;;;;;;5010110;28;20100;-75
2023/07/25 05:53:35;;;;;;;3.63;2.05;;;;;;;;;;5018679;28;20041;-75
2023/07/25 05:56:01;;;;;;;4.57;1.98;;;;;;;;;;5023185;28;20021;-75
2023/07/25 05:58:28;;;;;;;3.38;2.45;;;;;;;;;;5012556;28;20072;-76
2023/07/25 06:00:54;;;;;;;7.85;2.05;;;;;;;;;;5020731;28;20107;-75
2023/07/25 06:03:21;;;;;;;6.75;2.47;;;;;;;;;;5017276;28;20513;-74
2023/07/25 06:05:46;;;;;;;3.05;1.83;;;;;;;;;;4999568;28;20192;-75
2023/07/25 06:08:11;;;;;;;3.65;2.00;;;;;;;;;;5017353;28;20104;-75
2023/07/25 06:10:38;;;;;;;3.28;1.70;;;;;;;;;;5032772;28;20184;-74
2023/07/25 06:13:04;;;;;;;5.00;1.95;;;;;;;;;;5025165;28;20177;-75
2023/07/25 06:15:33;;;;;;;5.53;1.98;;;;;;;;;;5027880;28;20063;-75
2023/07/25 06:18:02;;;;;;;9.52;2.40;;;;;;;;;;5020674;28;20399;-76
2023/07/25 06:20:29;;;;;;;5.43;2.20;;;;;;;;;;5027684;28;20025;-75
2023/07/25 06:22:55;;;;;;;2.33;1.95;;;;;;;;;;5020893;28;20022;-75
2023/07/25 06:25:20;;;;;;;5.97;2.28;;;;;;;;;;5020220;28;20201;-75
2023/07/25 06:27:47;;;;;;;3.85;2.33;;;;;;;;;;5015144;28;20034;-76
2023/07/25 06:30:13;;;;;;;8.88;2.45;;;;;;;;;;5016106;28;20033;-74
2023/07/25 06:32:39;;;;;;;5.80;2.22;;;;;;;;;;5009491;28;20049;-76
2023/07/25 06:35:05;;;;;;;5.32;2.63;;;;;;;;;;5023681;28;20469;-75
2023/07/25 06:37:35;;;;;;;2.65;2.10;;;;;;;;;;5026814;28;20044;-75
2023/07/25 06:40:00;;;;;;;4.78;2.08;;;;;;;;;;5022993;28;20497;-76
2023/07/25 06:42:29;;;;;;;3.85;1.98;;;;;;;;;;5019828;28;20037;-76
2023/07/25 06:44:56;;;;;;;2.70;1.98;;;;;;;;;;4998448;28;20021;-75
2023/07/25 06:47:22;;;;;;;3.88;1.85;;;;;;;;;;4994230;28;20037;-74
2023/07/25 06:49:48;;;;;;;6.57;2.25;;;;;;;;;;5022580;28;20164;-75
2023/07/25 06:52:23;;;;;;;4.07;2.35;;;;;;;;;;5024478;28;20033;-75
2023/07/25 06:54:49;;;;;;;3.05;1.90;;;;;;;;;;5024629;28;20032;-74
2023/07/25 06:57:15;;;;;;;2.70;2.10;;;;;;;;;;5020422;28;20030;-73
2023/07/25 06:59:41;;;;;;;6.88;1.80;;;;;;;;;;5022216;28;20032;-74
2023/07/25 07:02:06;;;;;;;4.53;1.95;;;;;;;;;;5017375;28;20026;-74
2023/07/25 07:04:32;;;;;;;4.93;1.90;;;;;;;;;;5014601;28;20034;-73
2023/07/25 07:06:59;;;;;;;4.38;1.52;;;;;;;;;;5023708;28;20039;-76
2023/07/25 07:09:26;;;;;;;3.78;2.08;;;;;;;;;;5021581;28;20040;-74
2023/07/25 07:11:53;;;;;;;2.90;1.77;;;;;;;;;;5021005;28;20038;-76
2023/07/25 07:14:18;;;;;;;3.55;1.60;;;;;;;;;;5021851;28;20103;-75
2023/07/25 07:16:44;;;;;;;2.80;1.77;;;;;;;;;;5025662;28;20811;-76
2023/07/25 07:19:09;;;;;;;3.33;1.60;;;;;;;;;;5026652;28;20049;-75
2023/07/25 07:21:35;;;;;;;3.08;1.52;;;;;;;;;;5041942;28;20021;-74
2023/07/25 07:24:01;;;;;;;3.75;1.50;;;;;;;;;;5029047;28;20037;-73
2023/07/25 07:26:27;;;;;;;2.97;1.70;;;;;;;;;;5017097;28;20049;-75
2023/07/25 07:28:52;;;;;;;2.75;1.48;;;;;;;;;;5026184;28;20179;-74
2023/07/25 07:31:23;;;;;;;3.97;2.30;;;;;;;;;;5026967;28;20382;-75
2023/07/25 07:33:49;;;;;;;3.83;1.80;;;;;;;;;;5029539;28;20033;-75
2023/07/25 07:36:14;;;;;;;2.10;1.38;;;;;;;;;;5026167;28;20052;-75
2023/07/25 07:38:40;;;;;;;3.00;1.73;;;;;;;;;;5027583;28;20044;-74
2023/07/25 07:41:05;;;;;;;2.50;1.80;;;;;;;;;;5026806;28;20090;-75
2023/07/25 07:43:31;;;;;;;9.90;5.97;;;;;;;;;;5026070;28;20034;-76
2023/07/25 07:45:58;;;;;;;18.83;2.65;;;;;;;;;;5025528;28;20025;-75
2023/07/25 07:48:24;;;;;;;3.25;1.48;;;;;;;;;;5021587;28;20036;-74
2023/07/25 07:50:50;;;;;;;3.15;2.08;;;;;;;;;;5023924;28;20040;-75
2023/07/25 07:53:16;;;;;;;2.25;1.55;;;;;;;;;;5026464;28;20026;-77
2023/07/25 07:55:41;;;;;;;4.40;2.08;;;;;;;;;;5019596;28;20087;-77
2023/07/25 07:58:07;;;;;;;2.30;1.50;;;;;;;;;;5016400;28;20029;-76
2023/07/25 08:00:32;;;;;;;3.00;1.20;;;;;;;;;;5026673;28;20131;-75
2023/07/25 08:02:58;;;;;;;1.67;1.30;;;;;;;;;;5025280;28;20033;-76
2023/07/25 08:05:23;;;;;;;9.15;2.13;;;;;;;;;;5025712;28;20069;-75
2023/07/25 08:07:49;;;;;;;2.25;1.58;;;;;;;;;;5022315;28;20084;-75
2023/07/25 08:10:14;;;;;;;1.58;1.30;;;;;;;;;;5026199;28;20371;-75
2023/07/25 08:12:40;;;;;;;5.22;1.52;;;;;;;;;;5022481;28;20044;-76
2023/07/25 08:15:07;;;;;;;1.67;1.30;;;;;;;;;;5018811;28;20029;-76
2023/07/25 08:17:34;;;;;;;3.03;2.17;;;;;;;;;;5024636;28;20037;-76
2023/07/25 08:19:59;;;;;;;5.80;1.52;;;;;;;;;;5005110;28;20045;-75
2023/07/25 08:22:25;;;;;;;4.03;1.25;;;;;;;;;;5018248;28;20449;-75
2023/07/25 08:24:53;;;;;;;4.03;1.48;;;;;;;;;;5024136;28;20330;-75
2023/07/25 08:27:19;;;;;;;4.10;1.17;;;;;;;;;;5016340;28;20017;-76
2023/07/25 08:29:48;;;;;;;2.17;1.05;;;;;;;;;;5026540;28;20037;-75
2023/07/25 08:32:14;;;;;;;3.63;1.52;;;;;;;;;;5016821;28;20065;-76
2023/07/25 08:34:40;;;;;;;3.42;2.00;;;;;;;;;;5021917;28;20057;-76
2023/07/25 08:37:06;;;;;;;1.45;1.17;;;;;;;;;;5019470;28;20030;-75
2023/07/25 08:39:34;;;;;;;2.80;1.40;;;;;;;;;;5028205;28;20112;-78
2023/07/25 08:42:04;;;;;;;2.05;1.50;;;;;;;;;;5019139;28;20330;-76
2023/07/25 08:44:32;;;;;;;4.65;1.67;;;;;;;;;;5019189;28;20030;-75
2023/07/25 08:47:09;;;;;;;1.45;1.20;;;;;;;;;;5014789;28;20041;-74
2023/07/25 08:49:36;;;;;;;3.47;1.65;;;;;;;;;;5021410;28;20034;-75
2023/07/25 08:52:03;;;;;;;2.83;1.80;;;;;;;;;;5017576;28;20049;-75
2023/07/25 08:54:36;;;;;;;1.80;1.30;;;;;;;;;;5001638;28;20037;-73
2023/07/25 08:57:04;;;;;;;13.82;3.80;;;;;;;;;;5017947;28;20037;-78
2023/07/25 08:59:31;;;;;;;7.05;1.63;;;;;;;;;;5020922;28;20060;-76
2023/07/25 09:01:58;;;;;;;4.13;1.48;;;;;;;;;;5015289;28;20427;-74
2023/07/25 09:04:27;;;;;;;3.63;1.50;;;;;;;;;;5017031;28;20116;-77
2023/07/25 09:06:53;;;;;;;3.47;1.33;;;;;;;;;;5017428;28;20076;-76
2023/07/25 09:09:19;;;;;;;5.75;2.28;;;;;;;;;;5022291;28;20128;-74
2023/07/25 09:15:11;;;;;;;3.78;1.50;;;;;;;;;;5001538;28;20026;-75
2023/07/25 09:17:37;;;;;;;2.97;1.48;;;;;;;;;;5020943;28;20029;-74
2023/07/25 09:20:03;;;;;;;5.13;1.80;;;;;;;;;;5012480;28;20118;-76
2023/07/25 09:22:31;;;;;;;4.85;1.95;;;;;;;;;;4993163;28;20045;-76
2023/07/25 09:24:58;;;;;;;2.00;1.52;;;;;;;;;;5029458;28;20034;-75
2023/07/25 09:27:24;;;;;;;6.30;2.08;;;;;;;;;;5029780;28;20048;-77
2023/07/25 09:29:52;;;;;;;3.47;1.42;;;;;;;;;;5023180;28;20685;-78
2023/07/25 09:32:25;;;;;;;3.67;2.00;;;;;;;;;;5024104;28;20041;-76
2023/07/25 09:34:58;;;;;;;5.10;1.27;;;;;;;;;;5020560;28;20037;-77
2023/07/25 09:37:24;;;;;;;4.68;1.88;;;;;;;;;;5018941;28;20690;-75
2023/07/25 09:39:50;;;;;;;3.00;1.80;;;;;;;;;;5036788;28;20199;-74
2023/07/25 09:42:16;;;;;;;3.92;1.88;;;;;;;;;;5020072;28;20374;-73
2023/07/25 09:44:47;;;;;;;6.38;1.85;;;;;;;;;;5014124;28;20030;-74
2023/07/25 09:47:12;;;;;;;3.63;1.40;;;;;;;;;;5004177;28;20025;-75
2023/07/25 09:49:48;;;;;;;8.30;1.77;;;;;;;;;;5018732;28;20046;-75
2023/07/25 09:52:13;;;;;;;17.85;2.97;;;;;;;;;;5005884;28;20029;-76
2023/07/25 09:54:38;;;;;;;2.50;1.65;;;;;;;;;;5006165;28;20033;-75
2023/07/25 09:57:06;;;;;;;4.00;2.00;;;;;;;;;;5020586;28;20033;-75
2023/07/25 09:59:32;;;;;;;4.03;2.28;;;;;;;;;;5016918;28;20492;-74
2023/07/25 10:01:57;;;;;;;2.78;1.80;;;;;;;;;;5022293;28;20546;-74
2023/07/25 10:04:24;;;;;;;5.07;1.75;;;;;;;;;;5021178;28;20026;-75
2023/07/25 10:07:17;;;;;;;1.88;1.52;;;;;;;;;;5018605;28;20104;-75
2023/07/25 10:09:46;;;;;;;4.53;2.00;;;;;;;;;;5022162;28;20613;-75
2023/07/25 10:12:12;;;;;;;6.43;2.03;;;;;;;;;;5011750;28;20036;-75
2023/07/25 10:14:38;;;;;;;3.17;1.80;;;;;;;;;;5012919;28;20042;-74
2023/07/25 10:17:06;;;;;;;4.13;1.50;;;;;;;;;;5011272;28;20076;-75
2023/07/25 10:19:49;;;;;;;2.60;1.75;;;;;;;;;;5009037;28;20582;-75
2023/07/25 10:22:15;;;;;;;14.50;3.13;;;;;;;;;;5011908;28;20053;-74
2023/07/25 10:24:41;;;;;;;3.00;1.92;;;;;;;;;;5028087;28;20013;-75
2023/07/25 10:27:11;;;;;;;2.28;1.60;;;;;;;;;;5029467;28;20393;-75
2023/07/25 10:29:37;;;;;;;2.92;2.03;;;;;;;;;;5031357;28;20017;-75
2023/07/25 10:32:03;;;;;;;2.95;1.80;;;;;;;;;;5030066;28;20576;-75
2023/07/25 10:35:01;;;;;;;3.85;1.90;;;;;;;;;;5023680;28;20088;-75
2023/07/25 10:37:35;;;;;;;4.50;2.60;;;;;;;;;;5009140;28;20048;-74
2023/07/25 10:40:23;;;;;;;5.72;1.88;;;;;;;;;;5024550;28;20463;-76
2023/07/25 10:42:57;;;;;;;8.30;3.22;;;;;;;;;;5012321;28;20029;-74
2023/07/25 10:45:29;;;;;;;4.07;2.17;;;;;;;;;;5012567;28;20057;-75
2023/07/25 10:47:59;;;;;;;5.82;2.63;;;;;;;;;;5015407;28;20056;-74
2023/07/25 10:50:49;;;;;;;3.88;1.60;;;;;;;;;;5014517;28;20804;-75
2023/07/25 10:53:20;;;;;;;3.25;1.77;;;;;;;;;;5017147;28;20527;-74
2023/07/25 10:56:04;;;;;;;3.78;2.25;;;;;;;;;;5007499;28;20041;-75
2023/07/25 10:58:37;;;;;;;2.53;2.08;;;;;;;;;;5018482;28;20095;-76
2023/07/25 11:01:29;;;;;;;2.53;1.52;;;;;;;;;;5020109;28;20036;-76
2023/07/25 11:03:54;;;;;;;3.72;1.77;;;;;;;;;;5009167;28;20052;-74
2023/07/25 11:06:21;;;;;;;4.45;2.13;;;;;;;;;;5017839;28;20461;-77
2023/07/25 11:08:47;;;;;;;3.17;1.92;;;;;;;;;;5018063;28;20057;-77
2023/07/25 11:11:13;;;;;;;2.08;1.75;;;;;;;;;;5015541;28;20821;-75
2023/07/25 11:13:40;;;;;;;2.28;1.35;;;;;;;;;;5014544;28;20031;-75
2023/07/25 11:16:11;;;;;;;2.67;1.88;;;;;;;;;;5015147;28;20059;-75
2023/07/25 11:18:47;;;;;;;;;;;;;;;;;;5030571;28;20179;-75
2023/07/25 11:21:14;;;;;;;3.85;1.63;;;;;;;;;;5028324;28;19951;-74
2023/07/25 11:23:39;;;;;;;3.20;1.60;;;;;;;;;;5023095;28;20033;-74
2023/07/25 11:26:07;;;;;;;4.30;1.80;;;;;;;;;;5021300;28;20049;-75
2023/07/25 11:28:33;;;;;;;9.18;2.30;;;;;;;;;;5021063;28;20033;-75
2023/07/25 11:31:00;;;;;;;4.60;1.58;;;;;;;;;;5018244;28;20078;-75
2023/07/25 11:33:26;;;;;;;6.78;1.90;;;;;;;;;;5018265;28;20491;-75
2023/07/25 11:35:52;;;;;;;2.47;1.75;;;;;;;;;;5022473;28;20044;-74
2023/07/25 11:38:18;;;;;;;3.33;2.13;;;;;;;;;;5020584;28;20025;-75
2023/07/25 11:40:50;;;;;;;6.05;2.05;;;;;;;;;;5017334;28;20394;-74
2023/07/25 11:43:16;;;;;;;3.08;1.70;;;;;;;;;;5017865;28;20636;-77
2023/07/25 11:45:44;;;;;;;2.50;1.42;;;;;;;;;;5005311;28;20025;-77
2023/07/25 11:48:11;;;;;;;2.95;1.70;;;;;;;;;;5015713;28;20092;-76
2023/07/25 11:50:37;;;;;;;3.35;1.58;;;;;;;;;;5024769;28;20033;-74
2023/07/25 11:53:03;;;;;;;4.03;1.50;;;;;;;;;;5016724;28;20033;-79
2023/07/25 11:55:29;;;;;;;3.45;1.85;;;;;;;;;;5022261;28;20032;-77
2023/07/25 11:57:55;;;;;;;2.33;1.77;;;;;;;;;;5015948;28;20260;-75
2023/07/25 12:00:23;;;;;;;2.72;1.70;;;;;;;;;;5035639;28;20026;-75
2023/07/25 12:02:48;;;;;;;3.35;1.65;;;;;;;;;;5019496;28;20112;-75
2023/07/25 12:05:28;;;;;;;14.50;4.38;;;;;;;;;;5020441;28;20129;-76
2023/07/25 12:08:03;;;;;;;2.08;1.70;;;;;;;;;;5022943;28;20040;-73
2023/07/25 12:11:09;;;;;;;5.90;1.77;;;;;;;;;;5009579;28;20042;-76
2023/07/25 12:13:52;;;;;;;8.25;1.98;;;;;;;;;;5012767;28;20430;-73
2023/07/25 12:16:35;;;;;;;7.43;4.22;;;;;;;;;;5005182;28;20021;-76
2023/07/25 12:19:08;;;;;;;2.75;1.70;;;;;;;;;;5022991;28;20029;-77
2023/07/25 12:21:37;;;;;;;3.33;1.33;;;;;;;;;;5016101;28;20042;-77
2023/07/25 12:24:10;;;;;;;3.78;1.95;;;;;;;;;;5020357;28;20561;-77
2023/07/25 12:26:47;;;;;;;3.50;1.50;;;;;;;;;;5017942;28;20058;-76
2023/07/25 12:29:18;;;;;;;1.98;1.33;;;;;;;;;;5021814;28;20025;-77
2023/07/25 12:31:44;;;;;;;;;;;;;;;;;;5037839;28;20038;-80
2023/07/25 12:34:10;;;;;;;3.33;1.30;;;;;;;;;;5024797;28;20312;-75
2023/07/25 12:36:36;;;;;;;4.13;1.67;;;;;;;;;;5020938;28;20029;-76
2023/07/25 12:39:02;;;;;;;2.88;1.27;;;;;;;;;;5019091;28;20033;-76
2023/07/25 12:41:28;;;;;;;10.63;1.95;;;;;;;;;;5018696;28;20032;-76
2023/07/25 12:43:54;;;;;;;2.65;1.30;;;;;;;;;;5027190;28;20378;-78
2023/07/25 12:46:20;;;;;;;3.28;1.48;;;;;;;;;;5023202;28;20029;-77
2023/07/25 12:48:45;;;;;;;2.03;1.30;;;;;;;;;;5030777;28;20021;-74
2023/07/25 12:51:11;;;;;;;2.65;1.67;;;;;;;;;;5023250;28;20401;-75
2023/07/25 12:53:36;;;;;;;2.33;1.80;;;;;;;;;;5018464;28;20033;-77
2023/07/25 12:56:04;;;;;;;2.10;1.77;;;;;;;;;;5012091;28;20030;-76
2023/07/25 12:58:29;;;;;;;2.63;1.63;;;;;;;;;;4999645;28;20040;-76
2023/07/25 13:00:55;;;;;;;4.13;1.17;;;;;;;;;;5018377;28;20035;-75
2023/07/25 13:03:22;;;;;;;3.35;2.08;;;;;;;;;;5019806;28;20040;-76
2023/07/25 13:05:48;;;;;;;3.05;2.00;;;;;;;;;;5017039;28;20038;-74
2023/07/25 13:08:14;;;;;;;9.93;2.45;;;;;;;;;;5017219;28;20029;-77
2023/07/25 13:10:40;;;;;;;7.82;2.83;;;;;;;;;;5016265;28;20037;-74
2023/07/25 13:13:05;;;;;;;4.10;2.30;;;;;;;;;;5003149;28;20040;-76
2023/07/25 13:15:34;;;;;;;4.88;2.50;;;;;;;;;;5022471;28;20026;-74
2023/07/25 13:17:59;;;;;;;5.03;2.58;;;;;;;;;;5015345;28;20107;-72
2023/07/25 13:20:26;;;;;;;11.07;3.38;;;;;;;;;;5023429;28;20052;-81
2023/07/25 13:22:52;;;;;;;5.10;2.83;;;;;;;;;;5019996;28;20034;-76
2023/07/25 13:25:18;;;;;;;8.88;2.67;;;;;;;;;;5021438;28;20129;-75
2023/07/25 13:27:44;;;;;;;5.55;2.92;;;;;;;;;;5019122;28;20120;-78
2023/07/25 13:30:11;;;;;;;6.70;3.25;;;;;;;;;;5014498;28;20059;-75
2023/07/25 13:32:38;;;;;;;5.60;2.63;;;;;;;;;;5029394;28;20037;-78
2023/07/25 13:35:04;;;;;;;6.53;2.85;;;;;;;;;;5020456;28;20038;-76
2023/07/25 13:37:31;;;;;;;4.38;2.50;;;;;;;;;;5033123;28;20036;-75
2023/07/25 13:39:57;;;;;;;6.38;2.80;;;;;;;;;;5005479;28;20479;-75
2023/07/25 13:42:24;;;;;;;7.95;2.67;;;;;;;;;;5019944;28;20045;-74
2023/07/25 13:44:50;;;;;;;5.10;3.17;;;;;;;;;;5015311;28;20029;-76
2023/07/25 13:47:16;;;;;;;5.80;3.00;;;;;;;;;;5023836;28;20045;-75
2023/07/25 13:49:41;;;;;;;33.88;6.03;;;;;;;;;;5023335;28;20022;-78
2023/07/25 13:52:07;;;;;;;10.90;5.30;;;;;;;;;;5025357;28;20048;-77
2023/07/25 13:54:33;;;;;;;14.35;5.95;;;;;;;;;;5031071;28;20061;-76
2023/07/25 13:57:02;;;;;;;13.57;6.40;;;;;;;;;;5033383;28;20477;-80
2023/07/25 13:59:27;;;;;;;77.95;10.38;;;;;;;;;;5031906;28;20036;-78
2023/07/25 14:01:53;;;;;;;15.57;7.68;;;;;;;;;;5034158;28;20036;-77
2023/07/25 14:04:19;;;;;;;12.77;7.07;;;;;;;;;;5037599;28;20040;-78
2023/07/25 14:06:50;;;;;;;13.68;7.20;;;;;;;;;;5034213;28;20029;-77
2023/07/25 14:09:19;;;;;;;8.07;6.20;;;;;;;;;;5027914;28;20035;-79
2023/07/25 14:11:45;;;;;;;6.45;5.50;;;;;;;;;;5029242;28;20087;-76
2023/07/25 14:14:11;;;;;;;10.90;7.05;;;;;;;;;;5021927;28;20491;-77
2023/07/25 14:16:36;;;;;;;9.82;6.70;;;;;;;;;;5026677;28;20087;-79
2023/07/25 14:19:02;;;;;;;12.32;7.68;;;;;;;;;;5029957;28;20021;-77
2023/07/25 14:21:29;;;;;;;12.75;7.80;;;;;;;;;;5029743;28;20022;-77
2023/07/25 14:23:54;;;;;;;18.35;10.57;;;;;;;;;;5025703;28;20127;-79
2023/07/25 14:26:20;;;;;;;12.80;8.98;;;;;;;;;;5012536;28;20092;-75
2023/07/25 14:28:46;;;;;;;12.43;9.00;;;;;;;;;;5032637;28;20381;-75
2023/07/25 14:31:11;;;;;;;13.60;9.30;;;;;;;;;;5034964;28;20055;-77
2023/07/25 14:33:37;;;;;;;10.93;7.85;;;;;;;;;;5025710;28;20036;-79
2023/07/25 14:36:03;;;;;;;11.63;7.07;;;;;;;;;;5045516;28;20025;-77
2023/07/25 14:38:28;;;;;;;11.80;7.18;;;;;;;;;;5033794;28;20124;-78
2023/07/25 14:40:54;;;;;;;10.23;7.15;;;;;;;;;;5033666;28;20076;-75
2023/07/25 14:43:19;;;;;;;15.00;10.57;;;;;;;;;;5030111;28;20082;-77
2023/07/25 14:45:45;;;;;;;9.45;7.78;;;;;;;;;;5041722;28;20462;-76